sensor_id;sensor_type;location;lat;lon;timestamp;temperature;humidity
67722;SHT31;58309;45.292;11.820;2022-10-01T00:01:14;15.28;99.99
67722;SHT31;58309;45.292;11.820;2022-10-01T00:03:39;15.27;99.99
67722;SHT31;58309;45.292;11.820;2022-10-01T00:06:08;15.24;99.99
67722;SHT31;58309;45.292;11.820;2022-10-01T00:08:35;15.22;99.99
67722;SHT31;58309;45.292;11.820;2022-10-01T00:11:07;15.24;99.99
67722;SHT31;58309;45.292;11.820;2022-10-01T00:13:32;15.24;99.99
67722;SHT31;58309;45.292;11.820;2022-10-01T00:15:58;15.25;99.99
67722;SHT31;58309;45.292;11.820;2022-10-01T00:18:24;15.22;99.99
67722;SHT31;58309;45.292;11.820;2022-10-01T00:20:50;15.20;99.99
67722;SHT31;58309;45.292;11.820;2022-10-01T00:23:15;15.17;99.99
67722;SHT31;58309;45.292;11.820;2022-10-01T00:25:41;15.11;99.99
67722;SHT31;58309;45.292;11.820;2022-10-01T00:28:07;15.11;99.99
67722;SHT31;58309;45.292;11.820;2022-10-01T00:30:33;15.10;99.99
67722;SHT31;58309;45.292;11.820;2022-10-01T00:32:58;15.11;99.99
67722;SHT31;58309;45.292;11.820;2022-10-01T00:35:24;15.07;99.99
67722;SHT31;58309;45.292;11.820;2022-10-01T00:37:50;15.01;99.99
67722;SHT31;58309;45.292;11.820;2022-10-01T00:40:20;14.95;99.99
67722;SHT31;58309;45.292;11.820;2022-10-01T00:42:47;14.90;99.99
67722;SHT31;58309;45.292;11.820;2022-10-01T00:45:14;14.83;99.99
67722;SHT31;58309;45.292;11.820;2022-10-01T00:47:50;14.76;99.99
67722;SHT31;58309;45.292;11.820;2022-10-01T00:50:30;14.79;99.99
67722;SHT31;58309;45.292;11.820;2022-10-01T00:53:00;14.83;99.99
67722;SHT31;58309;45.292;11.820;2022-10-01T00:55:31;14.84;99.99
67722;SHT31;58309;45.292;11.820;2022-10-01T00:57:59;14.90;99.99
67722;SHT31;58309;45.292;11.820;2022-10-01T01:00:25;14.91;99.99
67722;SHT31;58309;45.292;11.820;2022-10-01T01:02:51;14.93;99.99
67722;SHT31;58309;45.292;11.820;2022-10-01T01:05:17;14.91;99.99
67722;SHT31;58309;45.292;11.820;2022-10-01T01:07:46;14.88;99.99
67722;SHT31;58309;45.292;11.820;2022-10-01T01:10:13;14.87;99.99
67722;SHT31;58309;45.292;11.820;2022-10-01T01:13:10;14.85;99.99
67722;SHT31;58309;45.292;11.820;2022-10-01T01:15:54;14.81;99.99
67722;SHT31;58309;45.292;11.820;2022-10-01T01:18:29;14.80;99.99
67722;SHT31;58309;45.292;11.820;2022-10-01T01:21:11;14.80;99.99
67722;SHT31;58309;45.292;11.820;2022-10-01T01:23:59;14.79;99.99
67722;SHT31;58309;45.292;11.820;2022-10-01T01:32:51;14.63;99.99
67722;SHT31;58309;45.292;11.820;2022-10-01T01:35:36;14.57;99.99
67722;SHT31;58309;45.292;11.820;2022-10-01T01:38:07;14.52;99.99
67722;SHT31;58309;45.292;11.820;2022-10-01T01:40:36;14.52;99.99
67722;SHT31;58309;45.292;11.820;2022-10-01T01:43:06;14.56;99.99
67722;SHT31;58309;45.292;11.820;2022-10-01T01:45:34;14.53;99.99
67722;SHT31;58309;45.292;11.820;2022-10-01T01:48:01;14.57;99.99
67722;SHT31;58309;45.292;11.820;2022-10-01T01:50:30;14.56;99.99
67722;SHT31;58309;45.292;11.820;2022-10-01T01:52:58;14.55;99.99
67722;SHT31;58309;45.292;11.820;2022-10-01T01:55:25;14.57;99.99
67722;SHT31;58309;45.292;11.820;2022-10-01T01:57:55;14.56;99.99
67722;SHT31;58309;45.292;11.820;2022-10-01T02:00:21;14.57;99.99
67722;SHT31;58309;45.292;11.820;2022-10-01T02:02:50;14.62;99.99
67722;SHT31;58309;45.292;11.820;2022-10-01T02:05:19;14.62;99.99
67722;SHT31;58309;45.292;11.820;2022-10-01T02:07:59;14.64;99.99
67722;SHT31;58309;45.292;11.820;2022-10-01T02:10:35;14.64;99.99
67722;SHT31;58309;45.292;11.820;2022-10-01T02:13:32;14.64;99.99
67722;SHT31;58309;45.292;11.820;2022-10-01T02:21:43;14.64;99.99
67722;SHT31;58309;45.292;11.820;2022-10-01T02:24:44;14.64;99.99
67722;SHT31;58309;45.292;11.820;2022-10-01T02:27:16;14.62;99.99
67722;SHT31;58309;45.292;11.820;2022-10-01T02:29:44;14.59;99.99
67722;SHT31;58309;45.292;11.820;2022-10-01T02:32:11;14.57;99.99
67722;SHT31;58309;45.292;11.820;2022-10-01T02:34:39;14.57;99.99
67722;SHT31;58309;45.292;11.820;2022-10-01T02:37:06;14.59;99.99
67722;SHT31;58309;45.292;11.820;2022-10-01T02:39:35;14.60;99.99
67722;SHT31;58309;45.292;11.820;2022-10-01T02:42:03;14.59;99.99
67722;SHT31;58309;45.292;11.820;2022-10-01T02:44:32;14.60;99.99
67722;SHT31;58309;45.292;11.820;2022-10-01T02:47:16;14.59;99.99
67722;SHT31;58309;45.292;11.820;2022-10-01T02:49:43;14.59;99.99
67722;SHT31;58309;45.292;11.820;2022-10-01T02:52:12;14.63;99.99
67722;SHT31;58309;45.292;11.820;2022-10-01T02:54:44;14.63;99.99
67722;SHT31;58309;45.292;11.820;2022-10-01T02:57:12;14.66;99.99
67722;SHT31;58309;45.292;11.820;2022-10-01T02:59:56;14.67;99.99
67722;SHT31;58309;45.292;11.820;2022-10-01T03:02:24;14.66;99.99
67722;SHT31;58309;45.292;11.820;2022-10-01T03:04:54;14.69;99.99
67722;SHT31;58309;45.292;11.820;2022-10-01T03:07:20;14.66;99.99
67722;SHT31;58309;45.292;11.820;2022-10-01T03:09:46;14.62;99.99
67722;SHT31;58309;45.292;11.820;2022-10-01T03:12:11;14.56;99.99
67722;SHT31;58309;45.292;11.820;2022-10-01T03:14:37;14.52;99.99
67722;SHT31;58309;45.292;11.820;2022-10-01T03:17:06;14.44;99.99
67722;SHT31;58309;45.292;11.820;2022-10-01T03:19:31;14.40;99.99
67722;SHT31;58309;45.292;11.820;2022-10-01T03:21:57;14.40;99.99
67722;SHT31;58309;45.292;11.820;2022-10-01T03:24:23;14.43;99.99
67722;SHT31;58309;45.292;11.820;2022-10-01T03:26:48;14.39;99.99
67722;SHT31;58309;45.292;11.820;2022-10-01T03:29:14;14.33;99.99
67722;SHT31;58309;45.292;11.820;2022-10-01T03:31:40;14.32;99.99
67722;SHT31;58309;45.292;11.820;2022-10-01T03:34:06;14.26;99.99
67722;SHT31;58309;45.292;11.820;2022-10-01T03:36:31;14.18;99.99
67722;SHT31;58309;45.292;11.820;2022-10-01T03:38:56;14.16;99.99
67722;SHT31;58309;45.292;11.820;2022-10-01T03:41:22;14.13;99.99
67722;SHT31;58309;45.292;11.820;2022-10-01T03:43:47;14.04;99.99
67722;SHT31;58309;45.292;11.820;2022-10-01T03:46:13;13.92;99.99
67722;SHT31;58309;45.292;11.820;2022-10-01T03:48:39;13.89;99.99
67722;SHT31;58309;45.292;11.820;2022-10-01T03:51:04;13.88;99.99
67722;SHT31;58309;45.292;11.820;2022-10-01T03:53:30;13.84;99.99
67722;SHT31;58309;45.292;11.820;2022-10-01T03:55:57;13.81;99.99
67722;SHT31;58309;45.292;11.820;2022-10-01T03:58:23;13.79;99.99
67722;SHT31;58309;45.292;11.820;2022-10-01T04:00:49;13.72;99.99
67722;SHT31;58309;45.292;11.820;2022-10-01T04:03:15;13.68;99.99
67722;SHT31;58309;45.292;11.820;2022-10-01T04:05:41;13.68;99.99
67722;SHT31;58309;45.292;11.820;2022-10-01T04:08:07;13.65;99.99
67722;SHT31;58309;45.292;11.820;2022-10-01T04:10:33;13.65;99.99
67722;SHT31;58309;45.292;11.820;2022-10-01T04:12:58;13.65;99.99
67722;SHT31;58309;45.292;11.820;2022-10-01T04:15:24;13.63;99.99
67722;SHT31;58309;45.292;11.820;2022-10-01T04:17:50;13.61;99.99
67722;SHT31;58309;45.292;11.820;2022-10-01T04:20:15;13.57;99.99
67722;SHT31;58309;45.292;11.820;2022-10-01T04:22:41;13.63;99.99
67722;SHT31;58309;45.292;11.820;2022-10-01T04:25:08;13.57;99.99
67722;SHT31;58309;45.292;11.820;2022-10-01T04:27:40;13.53;99.99
67722;SHT31;58309;45.292;11.820;2022-10-01T04:30:08;13.57;99.99
67722;SHT31;58309;45.292;11.820;2022-10-01T04:32:34;13.64;99.99
67722;SHT31;58309;45.292;11.820;2022-10-01T04:34:59;13.71;99.99
67722;SHT31;58309;45.292;11.820;2022-10-01T04:37:27;13.78;99.99
67722;SHT31;58309;45.292;11.820;2022-10-01T04:39:52;13.77;99.99
67722;SHT31;58309;45.292;11.820;2022-10-01T04:42:19;13.81;99.99
67722;SHT31;58309;45.292;11.820;2022-10-01T04:44:46;13.84;99.99
67722;SHT31;58309;45.292;11.820;2022-10-01T04:47:11;13.84;99.99
67722;SHT31;58309;45.292;11.820;2022-10-01T04:49:37;13.82;99.99
67722;SHT31;58309;45.292;11.820;2022-10-01T04:52:03;13.84;99.99
67722;SHT31;58309;45.292;11.820;2022-10-01T04:54:29;13.82;99.99
67722;SHT31;58309;45.292;11.820;2022-10-01T04:56:54;13.81;99.99
67722;SHT31;58309;45.292;11.820;2022-10-01T04:59:22;13.79;99.99
67722;SHT31;58309;45.292;11.820;2022-10-01T05:01:47;13.74;99.99
67722;SHT31;58309;45.292;11.820;2022-10-01T05:04:12;13.71;99.99
67722;SHT31;58309;45.292;11.820;2022-10-01T05:06:38;13.70;99.99
67722;SHT31;58309;45.292;11.820;2022-10-01T05:09:05;13.70;99.99
67722;SHT31;58309;45.292;11.820;2022-10-01T05:11:30;13.58;99.99
67722;SHT31;58309;45.292;11.820;2022-10-01T05:13:56;13.55;99.99
67722;SHT31;58309;45.292;11.820;2022-10-01T05:16:21;13.51;99.99
67722;SHT31;58309;45.292;11.820;2022-10-01T05:18:47;13.47;99.99
67722;SHT31;58309;45.292;11.820;2022-10-01T05:21:12;13.44;99.99
67722;SHT31;58309;45.292;11.820;2022-10-01T05:23:40;13.44;99.99
67722;SHT31;58309;45.292;11.820;2022-10-01T05:26:06;13.46;99.99
67722;SHT31;58309;45.292;11.820;2022-10-01T05:28:34;13.43;99.99
67722;SHT31;58309;45.292;11.820;2022-10-01T05:31:02;13.48;99.99
67722;SHT31;58309;45.292;11.820;2022-10-01T05:33:28;13.50;99.99
67722;SHT31;58309;45.292;11.820;2022-10-01T05:35:57;13.50;99.99
67722;SHT31;58309;45.292;11.820;2022-10-01T05:38:23;13.47;99.99
67722;SHT31;58309;45.292;11.820;2022-10-01T05:40:49;13.50;99.99
67722;SHT31;58309;45.292;11.820;2022-10-01T05:43:14;13.53;99.99
67722;SHT31;58309;45.292;11.820;2022-10-01T05:45:40;13.57;99.99
67722;SHT31;58309;45.292;11.820;2022-10-01T05:48:07;13.57;99.99
67722;SHT31;58309;45.292;11.820;2022-10-01T05:50:38;13.58;99.99
67722;SHT31;58309;45.292;11.820;2022-10-01T05:53:05;13.60;99.99
67722;SHT31;58309;45.292;11.820;2022-10-01T05:55:31;13.57;99.99
67722;SHT31;58309;45.292;11.820;2022-10-01T05:58:08;13.55;99.99
67722;SHT31;58309;45.292;11.820;2022-10-01T06:00:35;13.58;99.99
67722;SHT31;58309;45.292;11.820;2022-10-01T06:03:02;13.60;99.99
67722;SHT31;58309;45.292;11.820;2022-10-01T06:05:29;13.64;99.99
67722;SHT31;58309;45.292;11.820;2022-10-01T06:07:54;13.71;99.99
67722;SHT31;58309;45.292;11.820;2022-10-01T06:10:21;13.71;99.99
67722;SHT31;58309;45.292;11.820;2022-10-01T06:12:47;13.77;99.99
67722;SHT31;58309;45.292;11.820;2022-10-01T06:15:14;13.82;99.99
67722;SHT31;58309;45.292;11.820;2022-10-01T06:17:40;13.95;99.99
67722;SHT31;58309;45.292;11.820;2022-10-01T06:20:11;14.01;99.99
67722;SHT31;58309;45.292;11.820;2022-10-01T06:22:38;14.04;99.99
67722;SHT31;58309;45.292;11.820;2022-10-01T06:25:04;14.05;99.99
67722;SHT31;58309;45.292;11.820;2022-10-01T06:27:30;14.12;99.99
67722;SHT31;58309;45.292;11.820;2022-10-01T06:29:56;14.16;99.99
67722;SHT31;58309;45.292;11.820;2022-10-01T06:32:21;14.22;99.99
67722;SHT31;58309;45.292;11.820;2022-10-01T06:34:47;14.29;99.99
67722;SHT31;58309;45.292;11.820;2022-10-01T06:37:12;14.34;99.99
67722;SHT31;58309;45.292;11.820;2022-10-01T06:39:38;14.34;99.99
67722;SHT31;58309;45.292;11.820;2022-10-01T06:42:03;14.39;99.99
67722;SHT31;58309;45.292;11.820;2022-10-01T06:44:28;14.42;99.99
67722;SHT31;58309;45.292;11.820;2022-10-01T06:46:54;14.43;99.27
67722;SHT31;58309;45.292;11.820;2022-10-01T06:49:19;14.57;99.29
67722;SHT31;58309;45.292;11.820;2022-10-01T06:51:46;14.64;98.51
67722;SHT31;58309;45.292;11.820;2022-10-01T06:54:30;14.79;98.43
67722;SHT31;58309;45.292;11.820;2022-10-01T06:56:56;14.85;98.69
67722;SHT31;58309;45.292;11.820;2022-10-01T06:59:21;14.90;98.57
67722;SHT31;58309;45.292;11.820;2022-10-01T07:01:50;14.94;98.47
67722;SHT31;58309;45.292;11.820;2022-10-01T07:04:19;15.04;98.27
67722;SHT31;58309;45.292;11.820;2022-10-01T07:06:45;15.11;97.70
67722;SHT31;58309;45.292;11.820;2022-10-01T07:09:10;15.21;96.63
67722;SHT31;58309;45.292;11.820;2022-10-01T07:11:36;15.25;96.89
67722;SHT31;58309;45.292;11.820;2022-10-01T07:14:06;15.30;94.82
67722;SHT31;58309;45.292;11.820;2022-10-01T07:16:32;15.34;95.90
67722;SHT31;58309;45.292;11.820;2022-10-01T07:18:58;15.36;95.80
67722;SHT31;58309;45.292;11.820;2022-10-01T07:21:24;15.38;95.08
67722;SHT31;58309;45.292;11.820;2022-10-01T07:23:50;15.35;94.71
67722;SHT31;58309;45.292;11.820;2022-10-01T07:26:16;15.34;95.31
67722;SHT31;58309;45.292;11.820;2022-10-01T07:28:41;15.31;94.89
67722;SHT31;58309;45.292;11.820;2022-10-01T07:31:09;15.27;94.99
67722;SHT31;58309;45.292;11.820;2022-10-01T07:33:36;15.28;94.91
67722;SHT31;58309;45.292;11.820;2022-10-01T07:36:04;15.35;95.05
67722;SHT31;58309;45.292;11.820;2022-10-01T07:38:30;15.36;94.18
67722;SHT31;58309;45.292;11.820;2022-10-01T07:40:57;15.36;94.07
67722;SHT31;58309;45.292;11.820;2022-10-01T07:43:23;15.39;94.78
67722;SHT31;58309;45.292;11.820;2022-10-01T07:45:49;15.39;94.36
67722;SHT31;58309;45.292;11.820;2022-10-01T07:48:16;15.48;94.61
67722;SHT31;58309;45.292;11.820;2022-10-01T07:50:43;15.49;94.77
67722;SHT31;58309;45.292;11.820;2022-10-01T07:53:10;15.49;93.91
67722;SHT31;58309;45.292;11.820;2022-10-01T07:55:36;15.42;93.59
67722;SHT31;58309;45.292;11.820;2022-10-01T07:58:02;15.56;95.52
67722;SHT31;58309;45.292;11.820;2022-10-01T08:00:30;15.55;93.53
67722;SHT31;58309;45.292;11.820;2022-10-01T08:02:56;15.70;93.82
67722;SHT31;58309;45.292;11.820;2022-10-01T08:05:30;15.75;93.27
67722;SHT31;58309;45.292;11.820;2022-10-01T08:08:06;15.70;93.04
67722;SHT31;58309;45.292;11.820;2022-10-01T08:10:33;15.79;92.65
67722;SHT31;58309;45.292;11.820;2022-10-01T08:13:06;15.90;92.44
67722;SHT31;58309;45.292;11.820;2022-10-01T08:15:42;15.99;92.15
67722;SHT31;58309;45.292;11.820;2022-10-01T08:18:08;16.18;93.11
67722;SHT31;58309;45.292;11.820;2022-10-01T08:20:35;16.27;91.34
67722;SHT31;58309;45.292;11.820;2022-10-01T08:23:05;16.47;92.52
67722;SHT31;58309;45.292;11.820;2022-10-01T08:25:31;16.65;91.64
67722;SHT31;58309;45.292;11.820;2022-10-01T08:27:58;16.68;90.48
67722;SHT31;58309;45.292;11.820;2022-10-01T08:30:25;16.72;89.85
67722;SHT31;58309;45.292;11.820;2022-10-01T08:32:55;16.89;87.89
67722;SHT31;58309;45.292;11.820;2022-10-01T08:35:21;17.09;89.04
67722;SHT31;58309;45.292;11.820;2022-10-01T08:37:46;17.30;89.62
67722;SHT31;58309;45.292;11.820;2022-10-01T08:40:13;17.57;87.10
67722;SHT31;58309;45.292;11.820;2022-10-01T08:45:47;18.05;86.61
67722;SHT31;58309;45.292;11.820;2022-10-01T08:54:11;20.34;76.39
67722;SHT31;58309;45.292;11.820;2022-10-01T08:56:41;20.29;75.90
67722;SHT31;58309;45.292;11.820;2022-10-01T09:01:44;21.04;74.48
67722;SHT31;58309;45.292;11.820;2022-10-01T09:04:09;21.74;73.12
67722;SHT31;58309;45.292;11.820;2022-10-01T09:06:35;22.08;71.42
67722;SHT31;58309;45.292;11.820;2022-10-01T09:17:55;21.33;69.41
67722;SHT31;58309;45.292;11.820;2022-10-01T09:20:32;21.67;70.92
67722;SHT31;58309;45.292;11.820;2022-10-01T09:23:23;21.62;68.72
67722;SHT31;58309;45.292;11.820;2022-10-01T09:25:50;22.15;70.75
67722;SHT31;58309;45.292;11.820;2022-10-01T09:28:20;22.44;69.22
67722;SHT31;58309;45.292;11.820;2022-10-01T09:30:51;21.98;67.37
67722;SHT31;58309;45.292;11.820;2022-10-01T09:33:20;21.79;69.52
67722;SHT31;58309;45.292;11.820;2022-10-01T09:35:55;21.97;68.64
67722;SHT31;58309;45.292;11.820;2022-10-01T09:38:51;22.44;68.26
67722;SHT31;58309;45.292;11.820;2022-10-01T09:41:22;22.14;68.24
67722;SHT31;58309;45.292;11.820;2022-10-01T09:43:48;22.38;68.63
67722;SHT31;58309;45.292;11.820;2022-10-01T09:46:15;22.11;68.69
67722;SHT31;58309;45.292;11.820;2022-10-01T09:48:48;21.83;68.44
67722;SHT31;58309;45.292;11.820;2022-10-01T09:51:21;21.89;68.62
67722;SHT31;58309;45.292;11.820;2022-10-01T09:56:30;22.05;69.34
67722;SHT31;58309;45.292;11.820;2022-10-01T09:59:01;22.24;70.40
67722;SHT31;58309;45.292;11.820;2022-10-01T10:01:45;22.42;66.30
67722;SHT31;58309;45.292;11.820;2022-10-01T10:04:20;22.17;67.28
67722;SHT31;58309;45.292;11.820;2022-10-01T10:06:48;22.07;67.35
67722;SHT31;58309;45.292;11.820;2022-10-01T10:09:16;21.93;68.72
67722;SHT31;58309;45.292;11.820;2022-10-01T10:11:43;21.82;68.25
67722;SHT31;58309;45.292;11.820;2022-10-01T10:14:27;22.35;68.76
67722;SHT31;58309;45.292;11.820;2022-10-01T10:16:54;22.83;65.91
67722;SHT31;58309;45.292;11.820;2022-10-01T10:19:23;22.79;65.36
67722;SHT31;58309;45.292;11.820;2022-10-01T10:21:55;22.83;66.89
67722;SHT31;58309;45.292;11.820;2022-10-01T10:24:30;22.51;66.79
67722;SHT31;58309;45.292;11.820;2022-10-01T10:26:57;21.87;66.72
67722;SHT31;58309;45.292;11.820;2022-10-01T10:29:25;21.53;69.13
67722;SHT31;58309;45.292;11.820;2022-10-01T10:31:53;21.25;68.41
67722;SHT31;58309;45.292;11.820;2022-10-01T10:34:32;21.21;69.16
67722;SHT31;58309;45.292;11.820;2022-10-01T10:37:02;21.52;69.53
67722;SHT31;58309;45.292;11.820;2022-10-01T10:39:34;21.67;67.90
67722;SHT31;58309;45.292;11.820;2022-10-01T10:42:02;21.62;69.65
67722;SHT31;58309;45.292;11.820;2022-10-01T10:44:30;21.82;69.45
67722;SHT31;58309;45.292;11.820;2022-10-01T10:47:02;21.94;69.28
67722;SHT31;58309;45.292;11.820;2022-10-01T10:49:31;21.76;69.32
67722;SHT31;58309;45.292;11.820;2022-10-01T10:51:59;21.74;69.07
67722;SHT31;58309;45.292;11.820;2022-10-01T10:54:39;21.53;69.06
67722;SHT31;58309;45.292;11.820;2022-10-01T10:57:30;21.33;68.98
67722;SHT31;58309;45.292;11.820;2022-10-01T11:00:10;21.57;68.02
67722;SHT31;58309;45.292;11.820;2022-10-01T11:02:39;21.52;68.63
67722;SHT31;58309;45.292;11.820;2022-10-01T11:05:16;21.70;67.84
67722;SHT31;58309;45.292;11.820;2022-10-01T11:07:44;21.74;68.09
67722;SHT31;58309;45.292;11.820;2022-10-01T11:10:17;21.96;67.00
67722;SHT31;58309;45.292;11.820;2022-10-01T11:12:54;22.24;67.71
67722;SHT31;58309;45.292;11.820;2022-10-01T11:15:40;23.02;65.70
67722;SHT31;58309;45.292;11.820;2022-10-01T11:21:09;23.73;61.56
67722;SHT31;58309;45.292;11.820;2022-10-01T11:37:49;22.92;65.29
67722;SHT31;58309;45.292;11.820;2022-10-01T11:40:23;23.00;64.71
67722;SHT31;58309;45.292;11.820;2022-10-01T11:42:55;22.85;64.66
67722;SHT31;58309;45.292;11.820;2022-10-01T11:45:27;22.66;65.04
67722;SHT31;58309;45.292;11.820;2022-10-01T11:48:04;22.62;66.12
67722;SHT31;58309;45.292;11.820;2022-10-01T11:50:42;22.91;65.62
67722;SHT31;58309;45.292;11.820;2022-10-01T11:53:31;22.86;65.37
67722;SHT31;58309;45.292;11.820;2022-10-01T11:56:01;23.47;64.01
67722;SHT31;58309;45.292;11.820;2022-10-01T11:58:54;24.43;59.40
67722;SHT31;58309;45.292;11.820;2022-10-01T12:06:19;26.43;53.14
67722;SHT31;58309;45.292;11.820;2022-10-01T12:08:52;26.36;54.05
67722;SHT31;58309;45.292;11.820;2022-10-01T12:11:27;25.96;54.30
67722;SHT31;58309;45.292;11.820;2022-10-01T12:14:16;24.98;55.34
67722;SHT31;58309;45.292;11.820;2022-10-01T12:16:59;24.77;57.27
67722;SHT31;58309;45.292;11.820;2022-10-01T12:19:35;24.14;57.73
67722;SHT31;58309;45.292;11.820;2022-10-01T12:22:14;23.60;59.57
67722;SHT31;58309;45.292;11.820;2022-10-01T12:24:43;23.22;60.89
67722;SHT31;58309;45.292;11.820;2022-10-01T12:40:22;22.03;62.73
67722;SHT31;58309;45.292;11.820;2022-10-01T12:45:46;21.79;63.16
67722;SHT31;58309;45.292;11.820;2022-10-01T12:56:23;21.83;62.44
67722;SHT31;58309;45.292;11.820;2022-10-01T13:04:51;21.87;62.87
67722;SHT31;58309;45.292;11.820;2022-10-01T13:09:58;21.94;62.74
67722;SHT31;58309;45.292;11.820;2022-10-01T13:15:14;21.80;61.87
67722;SHT31;58309;45.292;11.820;2022-10-01T13:17:46;21.67;63.22
67722;SHT31;58309;45.292;11.820;2022-10-01T13:22:47;21.42;63.46
67722;SHT31;58309;45.292;11.820;2022-10-01T13:25:20;21.31;63.70
67722;SHT31;58309;45.292;11.820;2022-10-01T13:27:52;21.41;65.42
67722;SHT31;58309;45.292;11.820;2022-10-01T13:30:22;21.47;63.27
67722;SHT31;58309;45.292;11.820;2022-10-01T13:32:57;21.69;63.96
67722;SHT31;58309;45.292;11.820;2022-10-01T13:35:40;21.79;62.68
67722;SHT31;58309;45.292;11.820;2022-10-01T13:38:23;21.70;63.57
67722;SHT31;58309;45.292;11.820;2022-10-01T13:41:01;21.57;62.76
67722;SHT31;58309;45.292;11.820;2022-10-01T13:43:29;21.59;64.08
67722;SHT31;58309;45.292;11.820;2022-10-01T13:46:05;21.41;63.19
67722;SHT31;58309;45.292;11.820;2022-10-01T13:48:32;21.25;63.80
67722;SHT31;58309;45.292;11.820;2022-10-01T13:51:08;21.24;64.72
67722;SHT31;58309;45.292;11.820;2022-10-01T13:53:52;21.26;66.20
67722;SHT31;58309;45.292;11.820;2022-10-01T13:56:32;21.43;64.65
67722;SHT31;58309;45.292;11.820;2022-10-01T13:59:00;21.49;64.74
67722;SHT31;58309;45.292;11.820;2022-10-01T14:01:40;21.50;64.50
67722;SHT31;58309;45.292;11.820;2022-10-01T14:04:15;21.47;65.03
67722;SHT31;58309;45.292;11.820;2022-10-01T14:06:53;21.52;64.75
67722;SHT31;58309;45.292;11.820;2022-10-01T14:09:32;21.56;64.72
67722;SHT31;58309;45.292;11.820;2022-10-01T14:12:03;21.50;64.14
67722;SHT31;58309;45.292;11.820;2022-10-01T14:14:51;21.50;64.66
67722;SHT31;58309;45.292;11.820;2022-10-01T14:17:37;21.43;65.39
67722;SHT31;58309;45.292;11.820;2022-10-01T14:20:03;21.50;65.45
67722;SHT31;58309;45.292;11.820;2022-10-01T14:22:54;21.47;65.02
67722;SHT31;58309;45.292;11.820;2022-10-01T14:28:29;21.49;64.93
67722;SHT31;58309;45.292;11.820;2022-10-01T14:31:07;21.53;65.57
67722;SHT31;58309;45.292;11.820;2022-10-01T14:41:44;21.59;62.21
67722;SHT31;58309;45.292;11.820;2022-10-01T14:46:53;21.62;63.51
67722;SHT31;58309;45.292;11.820;2022-10-01T14:49:22;21.55;62.02
67722;SHT31;58309;45.292;11.820;2022-10-01T14:54:44;21.49;63.34
67722;SHT31;58309;45.292;11.820;2022-10-01T14:57:18;21.46;64.84
67722;SHT31;58309;45.292;11.820;2022-10-01T14:59:46;21.53;64.66
67722;SHT31;58309;45.292;11.820;2022-10-01T15:02:21;21.55;65.17
67722;SHT31;58309;45.292;11.820;2022-10-01T15:04:49;21.57;65.02
67722;SHT31;58309;45.292;11.820;2022-10-01T15:07:16;21.55;65.24
67722;SHT31;58309;45.292;11.820;2022-10-01T15:09:43;21.46;64.13
67722;SHT31;58309;45.292;11.820;2022-10-01T15:12:11;21.43;65.21
67722;SHT31;58309;45.292;11.820;2022-10-01T15:17:47;21.29;65.49
67722;SHT31;58309;45.292;11.820;2022-10-01T15:20:13;21.25;66.32
67722;SHT31;58309;45.292;11.820;2022-10-01T15:22:39;21.21;65.82
67722;SHT31;58309;45.292;11.820;2022-10-01T15:25:06;21.22;65.71
67722;SHT31;58309;45.292;11.820;2022-10-01T15:27:32;21.19;65.44
67722;SHT31;58309;45.292;11.820;2022-10-01T15:29:58;21.21;65.11
67722;SHT31;58309;45.292;11.820;2022-10-01T15:32:25;21.15;66.64
67722;SHT31;58309;45.292;11.820;2022-10-01T15:34:57;21.04;66.14
67722;SHT31;58309;45.292;11.820;2022-10-01T15:37:30;20.99;66.55
67722;SHT31;58309;45.292;11.820;2022-10-01T15:39:57;20.98;66.06
67722;SHT31;58309;45.292;11.820;2022-10-01T15:42:27;20.88;67.25
67722;SHT31;58309;45.292;11.820;2022-10-01T15:47:35;20.84;66.98
67722;SHT31;58309;45.292;11.820;2022-10-01T15:52:44;20.71;67.85
67722;SHT31;58309;45.292;11.820;2022-10-01T15:55:17;20.50;68.55
67722;SHT31;58309;45.292;11.820;2022-10-01T15:57:47;20.37;68.66
67722;SHT31;58309;45.292;11.820;2022-10-01T16:00:25;20.29;69.02
67722;SHT31;58309;45.292;11.820;2022-10-01T16:02:52;20.24;68.66
67722;SHT31;58309;45.292;11.820;2022-10-01T16:05:21;20.17;69.25
67722;SHT31;58309;45.292;11.820;2022-10-01T16:07:54;20.16;69.01
67722;SHT31;58309;45.292;11.820;2022-10-01T16:10:33;20.13;68.70
67722;SHT31;58309;45.292;11.820;2022-10-01T16:12:59;20.03;69.56
67722;SHT31;58309;45.292;11.820;2022-10-01T16:16:06;19.85;70.18
67722;SHT31;58309;45.292;11.820;2022-10-01T16:18:31;19.76;70.97
67722;SHT31;58309;45.292;11.820;2022-10-01T16:20:59;19.71;71.14
67722;SHT31;58309;45.292;11.820;2022-10-01T16:25:58;19.57;72.56
67722;SHT31;58309;45.292;11.820;2022-10-01T16:28:32;19.54;71.62
67722;SHT31;58309;45.292;11.820;2022-10-01T16:30:58;19.54;72.09
67722;SHT31;58309;45.292;11.820;2022-10-01T16:33:24;19.59;71.33
67722;SHT31;58309;45.292;11.820;2022-10-01T16:35:51;19.51;72.43
67722;SHT31;58309;45.292;11.820;2022-10-01T16:38:18;19.55;71.09
67722;SHT31;58309;45.292;11.820;2022-10-01T16:40:45;19.55;70.69
67722;SHT31;58309;45.292;11.820;2022-10-01T16:43:19;19.58;70.63
67722;SHT31;58309;45.292;11.820;2022-10-01T16:45:45;19.52;71.69
67722;SHT31;58309;45.292;11.820;2022-10-01T16:48:13;19.41;71.63
67722;SHT31;58309;45.292;11.820;2022-10-01T16:50:40;19.28;72.87
67722;SHT31;58309;45.292;11.820;2022-10-01T16:53:11;19.17;72.97
67722;SHT31;58309;45.292;11.820;2022-10-01T16:55:37;19.03;73.23
67722;SHT31;58309;45.292;11.820;2022-10-01T16:58:03;18.97;73.48
67722;SHT31;58309;45.292;11.820;2022-10-01T17:00:29;18.87;74.28
67722;SHT31;58309;45.292;11.820;2022-10-01T17:02:56;18.76;74.57
67722;SHT31;58309;45.292;11.820;2022-10-01T17:05:33;18.66;74.87
67722;SHT31;58309;45.292;11.820;2022-10-01T17:08:00;18.59;74.91
67722;SHT31;58309;45.292;11.820;2022-10-01T17:10:29;18.51;75.99
67722;SHT31;58309;45.292;11.820;2022-10-01T17:12:56;18.41;76.84
67722;SHT31;58309;45.292;11.820;2022-10-01T17:15:24;18.34;76.30
67722;SHT31;58309;45.292;11.820;2022-10-01T17:17:52;18.39;75.83
67722;SHT31;58309;45.292;11.820;2022-10-01T17:20:19;18.35;76.35
67722;SHT31;58309;45.292;11.820;2022-10-01T17:22:45;18.39;75.27
67722;SHT31;58309;45.292;11.820;2022-10-01T17:25:19;18.39;76.37
67722;SHT31;58309;45.292;11.820;2022-10-01T17:27:45;18.32;76.94
67722;SHT31;58309;45.292;11.820;2022-10-01T17:30:11;18.22;76.53
67722;SHT31;58309;45.292;11.820;2022-10-01T17:32:37;18.26;76.57
67722;SHT31;58309;45.292;11.820;2022-10-01T17:35:05;18.39;75.78